LETA weather

Servei Generals Del Circuit De Catalunya Heliport
Barcelona, Catalonia, Spain

Public forecast

Using degrees Celsius for public forecast. Weather courtesy of forecast.io.

METAR (pilot weather report)

Closest report is Sabadell Airport, 7.5 nm (14.0 km) WSW. Retrieved 2019/09/21 02:30 UTC (0 seconds ago):

LELL 210230Z AUTO 02005KT 330V070 9999 FEW027 21/18 Q1016

TAF (pilot weather forecast)

Closest forecast is Sabadell Airport, 7.5 nm (14.0 km) WSW. Retrieved 2019/09/21 03:27 UTC (0 seconds ago):

TAF LELL 210200Z 2103/2203 04008KT 9999 BKN025 TX24/2113Z TN17/2105Z TEMPO 2103/2118 4000 TSRA BKN010 SCT020CB PROB40 TEMPO 2108/2118 13015G30KT 2000 +TSRA BKN006 SCT020CB BECMG 2118/2120 VRB03KT